createdAt,value
2023-02-17T00:02:17.665Z,99.90
2023-02-17T00:04:45.718Z,99.90
2023-02-17T00:07:14.088Z,99.90
2023-02-17T00:09:41.905Z,99.90
2023-02-17T00:12:09.936Z,99.90
2023-02-17T00:14:40.543Z,99.90
2023-02-17T00:17:08.701Z,99.90
2023-02-17T00:19:36.487Z,99.90
2023-02-17T00:22:04.624Z,99.90
2023-02-17T00:24:34.357Z,99.90
2023-02-17T00:27:02.381Z,99.90
2023-02-17T00:29:30.205Z,99.90
2023-02-17T00:31:59.542Z,99.90
2023-02-17T00:34:28.379Z,99.90
2023-02-17T00:36:56.413Z,99.90
2023-02-17T00:39:24.401Z,99.90
2023-02-17T00:41:52.477Z,99.90
2023-02-17T00:44:21.509Z,99.90
2023-02-17T00:46:50.043Z,99.90
2023-02-17T00:49:22.002Z,99.90
2023-02-17T00:51:50.178Z,99.90
2023-02-17T00:54:18.453Z,99.90
2023-02-17T00:56:47.011Z,99.90
2023-02-17T00:59:14.877Z,99.90
2023-02-17T01:01:43.049Z,99.90
2023-02-17T01:04:10.974Z,99.90
2023-02-17T01:06:41.770Z,99.90
2023-02-17T01:09:14.589Z,99.90
2023-02-17T01:11:43.598Z,99.90
2023-02-17T01:14:14.302Z,99.90
2023-02-17T01:16:45.795Z,99.90
2023-02-17T01:19:15.198Z,99.90
2023-02-17T01:21:44.791Z,99.90
2023-02-17T01:24:13.566Z,99.90
2023-02-17T01:26:41.944Z,99.90
2023-02-17T01:29:10.132Z,99.90
2023-02-17T01:31:38.560Z,99.90
2023-02-17T01:34:06.424Z,99.90
2023-02-17T01:36:34.621Z,99.90
2023-02-17T01:39:04.111Z,99.90
2023-02-17T01:41:31.930Z,99.90
2023-02-17T01:44:16.554Z,99.90
2023-02-17T01:46:45.672Z,99.90
2023-02-17T01:49:22.321Z,99.90
2023-02-17T01:51:53.995Z,99.90
2023-02-17T01:54:28.032Z,99.90
2023-02-17T01:56:58.630Z,99.90
2023-02-17T01:59:26.687Z,99.90
2023-02-17T02:01:58.132Z,99.90
2023-02-17T02:04:30.185Z,99.90
2023-02-17T02:06:58.335Z,99.90
2023-02-17T02:09:32.357Z,99.90
2023-02-17T02:12:00.930Z,99.90
2023-02-17T02:14:29.692Z,99.90
2023-02-17T02:17:09.807Z,99.90
2023-02-17T02:20:02.672Z,99.90
2023-02-17T02:22:45.475Z,99.90
2023-02-17T02:25:33.728Z,99.90
2023-02-17T02:28:17.240Z,99.90
2023-02-17T02:31:08.309Z,99.90
2023-02-17T02:33:43.104Z,99.90
2023-02-17T02:36:14.631Z,99.90
2023-02-17T02:38:46.785Z,99.90
2023-02-17T02:41:18.921Z,99.90
2023-02-17T02:43:46.830Z,99.90
2023-02-17T02:46:14.809Z,99.90
2023-02-17T02:48:45.076Z,99.90
2023-02-17T02:51:29.931Z,99.90
2023-02-17T02:54:25.560Z,99.90
2023-02-17T02:57:07.577Z,99.90
2023-02-17T02:59:44.890Z,99.90
2023-02-17T03:02:19.295Z,99.90
2023-02-17T03:04:55.627Z,99.90
2023-02-17T03:07:28.458Z,99.90
2023-02-17T03:09:59.103Z,99.90
2023-02-17T03:12:28.764Z,99.90
2023-02-17T03:15:00.771Z,99.90
2023-02-17T03:17:31.844Z,99.90
2023-02-17T03:20:02.313Z,99.90
2023-02-17T03:22:35.084Z,99.90
2023-02-17T03:25:03.090Z,99.90
2023-02-17T03:27:31.268Z,99.90
2023-02-17T03:29:59.372Z,99.90
2023-02-17T03:32:27.302Z,99.90
2023-02-17T03:34:55.340Z,99.90
2023-02-17T03:37:24.713Z,99.90
2023-02-17T03:39:52.498Z,99.90
2023-02-17T03:42:20.976Z,99.90
2023-02-17T03:44:48.854Z,99.90
2023-02-17T03:47:16.646Z,99.90
2023-02-17T03:49:44.444Z,99.90
2023-02-17T03:52:12.241Z,99.90
2023-02-17T03:54:41.460Z,99.90
2023-02-17T03:57:09.294Z,99.90
2023-02-17T03:59:37.551Z,99.90
2023-02-17T04:02:05.684Z,99.90
2023-02-17T04:04:33.519Z,99.90
2023-02-17T04:07:01.341Z,99.90
2023-02-17T04:09:29.151Z,99.90
2023-02-17T04:11:58.466Z,99.90
2023-02-17T04:14:26.355Z,99.90
2023-02-17T04:16:54.452Z,99.90
2023-02-17T04:19:22.283Z,99.90
2023-02-17T04:21:50.370Z,99.90
2023-02-17T04:24:18.199Z,99.90
2023-02-17T04:26:45.966Z,99.90
2023-02-17T04:29:15.424Z,99.90
2023-02-17T04:31:43.348Z,99.90
2023-02-17T04:34:11.279Z,99.90
2023-02-17T04:36:39.278Z,99.90
2023-02-17T04:39:07.396Z,99.90
2023-02-17T04:41:35.273Z,99.90
2023-02-17T04:44:03.129Z,99.90
2023-02-17T04:46:32.418Z,99.90
2023-02-17T04:49:00.506Z,99.90
2023-02-17T04:51:28.378Z,99.90
2023-02-17T04:53:56.246Z,99.90
2023-02-17T04:56:25.054Z,99.90
2023-02-17T04:58:53.219Z,99.90
2023-02-17T05:01:21.081Z,99.90
2023-02-17T05:03:50.225Z,99.90
2023-02-17T05:06:18.055Z,99.90
2023-02-17T05:08:47.953Z,99.90
2023-02-17T05:11:16.020Z,99.90
2023-02-17T05:13:43.926Z,99.90
2023-02-17T05:16:11.910Z,99.90
2023-02-17T05:18:39.719Z,99.90
2023-02-17T05:21:09.154Z,99.90
2023-02-17T05:23:41.018Z,99.90
2023-02-17T05:26:09.589Z,99.90
2023-02-17T05:28:38.372Z,99.90
2023-02-17T05:31:07.203Z,99.90
2023-02-17T05:33:35.610Z,99.90
2023-02-17T05:36:04.709Z,99.90
2023-02-17T05:38:34.692Z,99.90
2023-02-17T05:41:02.594Z,99.90
2023-02-17T05:43:32.133Z,99.90
2023-02-17T05:46:03.825Z,99.90
2023-02-17T05:48:32.157Z,99.90
2023-02-17T05:51:00.124Z,99.90
2023-02-17T05:53:28.199Z,99.90
2023-02-17T05:55:57.472Z,99.90
2023-02-17T05:58:25.439Z,99.90
2023-02-17T06:00:53.583Z,99.90
2023-02-17T06:03:21.590Z,99.90
2023-02-17T06:05:52.975Z,99.90
2023-02-17T06:08:20.995Z,99.90
2023-02-17T06:10:49.062Z,99.90
2023-02-17T06:13:18.546Z,99.90
2023-02-17T06:15:46.822Z,99.90
2023-02-17T06:18:15.111Z,99.90
2023-02-17T06:20:43.383Z,99.90
2023-02-17T06:23:11.592Z,99.90
2023-02-17T06:25:39.749Z,99.90
2023-02-17T06:28:07.976Z,99.90
2023-02-17T06:30:37.306Z,99.90
2023-02-17T06:33:05.730Z,99.90
2023-02-17T06:35:33.686Z,99.90
2023-02-17T06:38:01.860Z,99.90
2023-02-17T06:40:29.720Z,99.90
2023-02-17T06:42:57.784Z,99.90
2023-02-17T06:45:26.098Z,99.90
2023-02-17T06:47:55.250Z,99.90
2023-02-17T06:50:23.053Z,99.90
2023-02-17T06:52:51.420Z,99.90
2023-02-17T06:55:19.524Z,99.90
2023-02-17T06:57:47.468Z,99.90
2023-02-17T07:00:16.094Z,99.90
2023-02-17T07:02:43.987Z,99.90
2023-02-17T07:05:13.327Z,99.90
2023-02-17T07:07:41.219Z,99.90
2023-02-17T07:10:09.933Z,99.90
2023-02-17T07:12:38.047Z,99.90
2023-02-17T07:15:06.918Z,99.90
2023-02-17T07:17:35.804Z,99.90
2023-02-17T07:20:03.888Z,99.90
2023-02-17T07:22:33.258Z,99.90
2023-02-17T07:25:01.359Z,99.90
2023-02-17T07:27:29.508Z,99.90
2023-02-17T07:29:57.472Z,99.90
2023-02-17T07:32:25.390Z,99.90
2023-02-17T07:34:53.618Z,99.90
2023-02-17T07:37:21.959Z,99.90
2023-02-17T07:39:52.556Z,99.90
2023-02-17T07:42:20.702Z,99.90
2023-02-17T07:44:49.133Z,99.90
2023-02-17T07:47:17.293Z,99.90
2023-02-17T07:49:45.341Z,99.90
2023-02-17T07:52:18.695Z,99.90
2023-02-17T07:54:46.763Z,99.90
2023-02-17T07:57:16.507Z,99.90
2023-02-17T07:59:44.464Z,99.90
2023-02-17T08:02:12.988Z,99.90
2023-02-17T08:04:41.390Z,99.90
2023-02-17T08:07:09.508Z,99.90
2023-02-17T08:09:55.253Z,99.90
2023-02-17T08:12:41.918Z,99.90
2023-02-17T08:15:11.790Z,99.90
2023-02-17T08:17:40.236Z,99.90
2023-02-17T08:20:09.479Z,99.90
2023-02-17T08:22:37.613Z,99.90
2023-02-17T08:25:06.769Z,99.90
2023-02-17T08:27:36.532Z,99.90
2023-02-17T08:30:05.200Z,99.90
2023-02-17T08:32:33.243Z,99.90
2023-02-17T08:35:01.719Z,99.90
2023-02-17T08:37:30.137Z,99.90
2023-02-17T08:39:58.956Z,99.90
2023-02-17T08:42:27.160Z,99.90
2023-02-17T08:44:56.632Z,99.90
2023-02-17T08:47:24.597Z,99.90
2023-02-17T08:49:52.556Z,99.90
2023-02-17T08:52:20.442Z,99.90
2023-02-17T08:54:50.382Z,99.90
2023-02-17T08:57:21.604Z,99.90
2023-02-17T08:59:49.640Z,99.90
2023-02-17T09:02:19.116Z,99.90
2023-02-17T09:04:47.781Z,99.90
2023-02-17T09:07:16.633Z,99.90
2023-02-17T09:09:44.982Z,99.90
2023-02-17T09:12:13.320Z,99.90
2023-02-17T09:14:41.214Z,99.90
2023-02-17T09:17:09.494Z,99.90
2023-02-17T09:19:41.953Z,99.90
2023-02-17T09:22:13.559Z,99.90
2023-02-17T09:24:46.468Z,99.90
2023-02-17T09:27:14.776Z,99.90
2023-02-17T09:29:42.875Z,99.90
2023-02-17T09:32:11.245Z,99.90
2023-02-17T09:34:42.128Z,99.90
2023-02-17T09:37:12.117Z,99.90
2023-02-17T09:39:40.014Z,99.90
2023-02-17T09:42:08.041Z,99.90
2023-02-17T09:44:42.412Z,99.90
2023-02-17T09:47:17.297Z,99.90
2023-02-17T09:49:49.612Z,99.90
2023-02-17T09:52:23.555Z,99.90
2023-02-17T09:55:00.581Z,99.90
2023-02-17T09:57:32.417Z,99.90
2023-02-17T10:00:05.440Z,99.90
2023-02-17T10:02:36.601Z,99.90
2023-02-17T10:05:09.992Z,99.90
2023-02-17T10:07:42.981Z,99.90
2023-02-17T10:10:16.796Z,99.90
2023-02-17T10:12:49.990Z,99.90
2023-02-17T10:15:22.032Z,99.90
2023-02-17T10:17:56.428Z,99.90
2023-02-17T10:20:32.338Z,99.90
2023-02-17T10:23:08.187Z,99.90
2023-02-17T10:25:52.231Z,99.90
2023-02-17T10:28:28.977Z,99.90
2023-02-17T10:31:03.066Z,99.90
2023-02-17T10:33:36.397Z,99.90
2023-02-17T10:36:13.017Z,99.90
2023-02-17T10:38:50.327Z,99.90
2023-02-17T10:41:23.811Z,99.90
2023-02-17T10:43:52.680Z,99.90
2023-02-17T10:46:27.457Z,99.90
2023-02-17T10:48:57.400Z,99.90
2023-02-17T10:51:30.990Z,99.90
2023-02-17T10:54:05.385Z,99.90
2023-02-17T10:56:40.110Z,99.90
2023-02-17T10:59:15.581Z,99.90
2023-02-17T11:01:44.924Z,99.90
2023-02-17T11:04:24.115Z,99.90
2023-02-17T11:06:56.185Z,99.90
2023-02-17T11:09:29.787Z,99.90
2023-02-17T11:12:01.694Z,99.90
2023-02-17T11:14:32.396Z,99.90
2023-02-17T11:17:02.804Z,99.90
2023-02-17T11:19:34.324Z,99.90
2023-02-17T11:22:07.782Z,99.90
2023-02-17T11:24:38.794Z,99.90
2023-02-17T11:27:10.638Z,99.90
2023-02-17T11:29:38.961Z,99.90
2023-02-17T11:32:09.313Z,99.90
2023-02-17T11:34:39.416Z,99.90
2023-02-17T11:37:22.552Z,99.90
2023-02-17T11:39:53.365Z,99.90
2023-02-17T11:42:25.347Z,99.90
2023-02-17T11:44:55.733Z,99.90
2023-02-17T11:47:36.199Z,99.90
2023-02-17T11:50:40.402Z,99.90
2023-02-17T11:53:30.677Z,99.90
2023-02-17T11:56:15.241Z,99.90
2023-02-17T11:58:54.720Z,99.90
2023-02-17T12:01:40.919Z,99.90
2023-02-17T12:04:26.259Z,99.90
2023-02-17T12:07:10.989Z,99.90
2023-02-17T12:09:49.734Z,99.90
2023-02-17T12:12:29.470Z,99.90
2023-02-17T12:15:09.273Z,99.90
2023-02-17T12:17:47.742Z,99.90
2023-02-17T12:20:35.107Z,99.90
2023-02-17T12:23:18.074Z,99.90
2023-02-17T12:25:57.476Z,99.90
2023-02-17T12:28:42.629Z,99.90
2023-02-17T12:31:22.664Z,99.90
2023-02-17T12:33:59.364Z,99.90
2023-02-17T12:36:34.411Z,99.90
2023-02-17T12:39:11.980Z,99.90
2023-02-17T12:41:45.554Z,99.90
2023-02-17T12:44:18.973Z,99.90
2023-02-17T12:46:54.123Z,99.90
2023-02-17T12:49:28.643Z,99.90
2023-02-17T12:52:02.728Z,99.90
2023-02-17T12:54:35.212Z,99.90
2023-02-17T12:57:13.818Z,99.90
2023-02-17T12:59:44.097Z,99.90
2023-02-17T13:02:16.243Z,99.90
2023-02-17T13:04:46.110Z,99.90
2023-02-17T13:07:34.869Z,99.90
2023-02-17T13:10:10.705Z,99.90
2023-02-17T13:12:48.260Z,99.90
2023-02-17T13:15:48.879Z,99.90
2023-02-17T13:18:30.534Z,99.90
2023-02-17T13:21:01.381Z,99.90
2023-02-17T13:23:36.057Z,99.90
2023-02-17T13:26:26.157Z,99.90
2023-02-17T13:29:08.754Z,99.90
2023-02-17T13:31:48.574Z,99.90
2023-02-17T13:34:36.977Z,99.90
2023-02-17T13:37:19.035Z,99.90
2023-02-17T13:39:47.488Z,99.90
2023-02-17T13:42:36.376Z,99.90
2023-02-17T13:45:19.181Z,99.90
2023-02-17T13:47:48.918Z,99.90
2023-02-17T13:50:33.767Z,99.90
2023-02-17T13:53:03.598Z,99.90
2023-02-17T13:55:31.950Z,99.90
2023-02-17T13:58:04.187Z,99.90
2023-02-17T14:00:33.915Z,99.90
2023-02-17T14:03:15.233Z,99.90
2023-02-17T14:05:46.274Z,99.90
2023-02-17T14:08:19.494Z,99.90
2023-02-17T14:10:48.119Z,99.90
2023-02-17T14:13:16.836Z,99.90
2023-02-17T14:15:55.097Z,99.90
2023-02-17T14:18:32.355Z,99.90
2023-02-17T14:21:06.776Z,99.90
2023-02-17T14:23:48.369Z,99.90
2023-02-17T14:26:28.603Z,99.90
2023-02-17T14:28:58.271Z,99.90
2023-02-17T14:31:28.674Z,99.90
2023-02-17T14:33:59.643Z,99.90
2023-02-17T14:36:31.731Z,99.90
2023-02-17T14:39:00.571Z,99.90
2023-02-17T14:41:29.461Z,99.90
2023-02-17T14:43:58.725Z,99.90
2023-02-17T14:46:28.551Z,99.90
2023-02-17T14:48:56.803Z,99.90
2023-02-17T14:51:27.367Z,99.90
2023-02-17T14:53:55.445Z,99.90
2023-02-17T14:56:27.716Z,99.90
2023-02-17T14:58:57.067Z,99.90
2023-02-17T15:01:27.281Z,99.90
2023-02-17T15:03:55.740Z,99.90
2023-02-17T15:06:29.352Z,99.90
2023-02-17T15:09:01.441Z,99.90
2023-02-17T15:11:34.475Z,99.90
2023-02-17T15:14:03.568Z,99.90
2023-02-17T15:16:33.375Z,99.90
2023-02-17T15:19:01.824Z,99.90
2023-02-17T15:21:32.207Z,99.90
2023-02-17T15:24:02.171Z,99.90
2023-02-17T15:26:31.965Z,99.90
2023-02-17T15:29:00.245Z,99.90
2023-02-17T15:31:31.540Z,99.90
2023-02-17T15:34:03.450Z,99.90
2023-02-17T15:36:32.480Z,99.90
2023-02-17T15:39:00.644Z,99.90
2023-02-17T15:41:31.531Z,99.90
2023-02-17T15:43:59.886Z,99.90
2023-02-17T15:46:32.664Z,99.90
2023-02-17T15:49:02.504Z,99.90
2023-02-17T15:51:30.878Z,99.90
2023-02-17T15:53:59.217Z,99.90
2023-02-17T15:56:32.306Z,99.90
2023-02-17T15:59:05.685Z,99.90
2023-02-17T16:01:35.636Z,99.90
2023-02-17T16:04:05.727Z,99.90
2023-02-17T16:06:33.724Z,99.90
2023-02-17T16:09:01.766Z,99.90
2023-02-17T16:11:30.399Z,99.90
2023-02-17T16:13:58.699Z,99.90
2023-02-17T16:16:32.403Z,99.90
2023-02-17T16:19:01.265Z,99.90
2023-02-17T16:21:30.724Z,99.90
2023-02-17T16:24:00.364Z,99.90
2023-02-17T16:26:34.496Z,99.90
2023-02-17T16:29:03.520Z,99.90
2023-02-17T16:31:35.792Z,99.90
2023-02-17T16:34:04.241Z,99.90
2023-02-17T16:36:36.572Z,99.90
2023-02-17T16:39:12.658Z,99.90
2023-02-17T16:41:40.828Z,99.90
2023-02-17T16:44:09.563Z,99.90
2023-02-17T16:46:38.497Z,99.90
2023-02-17T16:49:19.863Z,99.90
2023-02-17T16:51:49.398Z,99.90
2023-02-17T16:54:21.060Z,99.90
2023-02-17T16:56:53.134Z,99.90
2023-02-17T16:59:24.307Z,99.90
2023-02-17T17:01:55.668Z,99.90
2023-02-17T17:04:24.793Z,99.90
2023-02-17T17:06:54.667Z,99.90
2023-02-17T17:09:25.386Z,99.90
2023-02-17T17:11:57.791Z,99.90
2023-02-17T17:14:26.152Z,99.90
2023-02-17T17:16:58.779Z,99.90
2023-02-17T17:19:29.172Z,99.90
2023-02-17T17:22:06.243Z,99.90
2023-02-17T17:24:34.788Z,99.90
2023-02-17T17:27:03.668Z,99.90
2023-02-17T17:29:33.228Z,99.90
2023-02-17T17:32:01.986Z,99.90
2023-02-17T17:34:30.328Z,99.90
2023-02-17T17:37:06.308Z,99.90
2023-02-17T17:39:34.719Z,99.90
2023-02-17T17:42:03.257Z,99.90
2023-02-17T17:44:31.650Z,99.90
2023-02-17T17:46:59.891Z,99.90
2023-02-17T17:49:28.399Z,99.90
2023-02-17T17:51:57.713Z,99.90
2023-02-17T17:54:29.521Z,99.90
2023-02-17T17:56:58.108Z,99.90
2023-02-17T17:59:26.392Z,99.90
2023-02-17T18:01:54.957Z,99.90
2023-02-17T18:04:23.518Z,99.90
2023-02-17T18:07:09.564Z,99.90
2023-02-17T18:09:40.686Z,99.90
2023-02-17T18:12:12.349Z,99.90
2023-02-17T18:14:43.800Z,99.90
2023-02-17T18:17:15.285Z,99.90
2023-02-17T18:19:44.513Z,99.90
2023-02-17T18:22:13.484Z,99.90
2023-02-17T18:24:45.685Z,99.90
2023-02-17T18:27:14.072Z,99.90
2023-02-17T18:29:42.753Z,99.90
2023-02-17T18:32:11.294Z,99.90
2023-02-17T18:34:39.694Z,99.90
2023-02-17T18:37:08.215Z,99.90
2023-02-17T18:39:36.767Z,99.90
2023-02-17T18:42:07.330Z,99.90
2023-02-17T18:44:36.025Z,99.90
2023-02-17T18:47:04.799Z,99.90
2023-02-17T18:49:34.946Z,99.90
2023-02-17T19:03:08.930Z,99.90
2023-02-17T20:50:12.821Z,99.90
2023-02-17T20:58:53.870Z,99.90
2023-02-17T21:26:35.952Z,99.90
2023-02-17T21:29:32.999Z,99.90
2023-02-17T21:32:47.516Z,99.90
2023-02-17T21:44:16.766Z,99.90
2023-02-17T21:46:48.368Z,99.90
2023-02-17T21:49:16.676Z,99.90
2023-02-17T21:51:45.670Z,99.90
2023-02-17T21:54:13.931Z,99.90
2023-02-17T21:56:42.166Z,99.90
2023-02-17T21:59:11.812Z,99.90
2023-02-17T22:01:40.030Z,99.90
2023-02-17T22:04:08.334Z,99.90
2023-02-17T22:06:39.155Z,99.90
2023-02-17T22:09:09.132Z,99.90
2023-02-17T22:11:40.667Z,99.90
2023-02-17T22:14:14.077Z,99.90
2023-02-17T22:16:42.432Z,99.90
2023-02-17T22:19:14.981Z,99.90
2023-02-17T22:21:44.737Z,99.90
2023-02-17T22:24:13.685Z,99.90
2023-02-17T22:26:48.254Z,99.90
2023-02-17T22:29:17.841Z,99.90
2023-02-17T22:31:46.395Z,99.90
2023-02-17T22:34:15.420Z,99.90
2023-02-17T22:36:43.720Z,99.90
2023-02-17T22:39:11.998Z,99.50
2023-02-17T22:41:40.813Z,99.90
2023-02-17T22:44:09.277Z,99.90
2023-02-17T22:46:39.321Z,99.70
2023-02-17T22:49:07.362Z,99.70
2023-02-17T22:51:38.383Z,99.60
2023-02-17T22:54:08.143Z,99.40
2023-02-17T22:56:36.633Z,99.50
2023-02-17T22:59:05.561Z,99.40
2023-02-17T23:01:35.420Z,99.70
2023-02-17T23:04:05.588Z,99.60
2023-02-17T23:06:36.020Z,99.20
2023-02-17T23:09:05.260Z,99.40
2023-02-17T23:11:54.973Z,99.40
2023-02-17T23:14:26.018Z,99.40
2023-02-17T23:16:58.836Z,99.30
2023-02-17T23:19:29.938Z,99.40
2023-02-17T23:22:00.646Z,99.40
2023-02-17T23:24:28.959Z,99.30
2023-02-17T23:26:58.897Z,99.30
2023-02-17T23:29:27.301Z,98.80
2023-02-17T23:31:55.711Z,99.40
2023-02-17T23:34:24.372Z,99.40
2023-02-17T23:36:53.984Z,99.50
2023-02-17T23:39:22.125Z,99.30
2023-02-17T23:41:50.246Z,99.40
2023-02-17T23:44:19.380Z,99.20
2023-02-17T23:46:47.857Z,99.30
2023-02-17T23:49:17.955Z,99.20
2023-02-17T23:51:47.242Z,99.30
2023-02-17T23:54:16.902Z,99.30
2023-02-17T23:56:45.163Z,99.10
2023-02-17T23:59:13.814Z,99.10
